createdAt,value
2023-03-16T00:01:08.079Z,96860.16
2023-03-16T00:03:36.982Z,96864.14
2023-03-16T00:06:05.453Z,96865.00
2023-03-16T00:08:33.727Z,96866.38
2023-03-16T00:11:02.879Z,96866.88
2023-03-16T00:13:31.250Z,96866.03
2023-03-16T00:16:03.170Z,96869.15
2023-03-16T00:18:31.693Z,96871.91
2023-03-16T00:21:05.661Z,96877.77
2023-03-16T00:23:38.293Z,96879.31
2023-03-16T00:26:10.300Z,96880.54
2023-03-16T00:28:39.627Z,96878.64
2023-03-16T00:31:12.336Z,96879.15
2023-03-16T00:33:43.250Z,96877.42
2023-03-16T00:36:12.287Z,96872.27
2023-03-16T00:38:45.643Z,96877.95
2023-03-16T00:41:15.941Z,96873.99
2023-03-16T00:43:45.675Z,96874.35
2023-03-16T00:46:17.526Z,96874.17
2023-03-16T00:48:48.087Z,96872.45
2023-03-16T00:51:18.449Z,96879.54
2023-03-16T00:53:47.108Z,96881.77
2023-03-16T00:56:16.543Z,96878.69
2023-03-16T00:58:44.836Z,96879.89
2023-03-16T01:01:19.142Z,96880.05
2023-03-16T01:03:47.454Z,96881.10
2023-03-16T01:06:18.226Z,96886.61
2023-03-16T01:08:46.545Z,96884.21
2023-03-16T01:11:18.905Z,96887.48
2023-03-16T01:13:48.671Z,96890.41
2023-03-16T01:16:19.358Z,96888.17
2023-03-16T01:18:50.741Z,96894.20
2023-03-16T01:21:22.174Z,96889.89
2023-03-16T01:23:53.981Z,96889.02
2023-03-16T01:26:23.825Z,96886.27
2023-03-16T01:28:51.929Z,96884.90
2023-03-16T01:31:20.109Z,96889.73
2023-03-16T01:33:48.576Z,96890.94
2023-03-16T01:36:21.598Z,96891.11
2023-03-16T01:39:03.848Z,96891.45
2023-03-16T01:41:46.750Z,96893.17
2023-03-16T01:44:33.049Z,96898.16
2023-03-16T01:47:06.249Z,96899.70
2023-03-16T01:49:38.155Z,96901.09
2023-03-16T01:52:12.882Z,96900.58
2023-03-16T01:54:50.838Z,96907.47
2023-03-16T01:57:26.923Z,96910.55
2023-03-16T01:59:58.400Z,96914.34
2023-03-16T02:02:33.825Z,96919.52
2023-03-16T02:05:02.172Z,96920.20
2023-03-16T02:07:36.493Z,96925.20
2023-03-16T02:10:07.440Z,96925.73
2023-03-16T02:12:36.930Z,96927.79
2023-03-16T02:15:05.798Z,96929.33
2023-03-16T02:17:36.787Z,96929.34
2023-03-16T02:20:16.829Z,96930.20
2023-03-16T02:22:49.553Z,96934.84
2023-03-16T02:25:18.970Z,96939.14
2023-03-16T02:27:47.202Z,96941.53
2023-03-16T02:30:17.956Z,96943.93
2023-03-16T02:32:57.278Z,96942.91
2023-03-16T02:35:25.643Z,96943.95
2023-03-16T02:37:54.366Z,96948.27
2023-03-16T02:40:32.997Z,96952.04
2023-03-16T02:43:05.232Z,96953.08
2023-03-16T02:45:49.140Z,96954.45
2023-03-16T02:48:23.655Z,96951.00
2023-03-16T02:50:54.590Z,96950.31
2023-03-16T02:53:23.075Z,96953.92
2023-03-16T02:55:51.770Z,96958.39
2023-03-16T02:58:21.342Z,96962.00
2023-03-16T03:00:49.509Z,96965.80
2023-03-16T03:03:18.587Z,96967.33
2023-03-16T03:05:46.991Z,96968.53
2023-03-16T03:08:16.488Z,96970.79
2023-03-16T03:10:45.454Z,96973.69
2023-03-16T03:13:13.974Z,96978.85
2023-03-16T03:15:42.194Z,96978.67
2023-03-16T03:18:12.338Z,96986.04
2023-03-16T03:20:41.875Z,96989.64
2023-03-16T03:23:11.579Z,96991.15
2023-03-16T03:25:40.096Z,96993.91
2023-03-16T03:28:09.482Z,96999.73
2023-03-16T03:30:37.989Z,97000.58
2023-03-16T03:33:06.595Z,97012.06
2023-03-16T03:35:34.900Z,97001.73
2023-03-16T03:38:03.144Z,97013.29
2023-03-16T03:40:32.115Z,97016.21
2023-03-16T03:43:03.847Z,97020.19
2023-03-16T03:45:33.497Z,97023.63
2023-03-16T03:48:01.680Z,97029.83
2023-03-16T03:50:30.304Z,97037.21
2023-03-16T03:53:17.836Z,97037.36
2023-03-16T03:56:06.585Z,97036.69
2023-03-16T03:58:34.864Z,97036.00
2023-03-16T04:01:03.824Z,97041.66
2023-03-16T04:03:32.892Z,97044.61
2023-03-16T04:06:01.728Z,97047.89
2023-03-16T04:08:30.329Z,97050.34
2023-03-16T04:10:58.664Z,97051.72
2023-03-16T04:13:27.858Z,97059.64
2023-03-16T04:15:58.398Z,97064.27
2023-03-16T04:18:38.848Z,97066.34
2023-03-16T04:21:12.746Z,97072.49
2023-03-16T04:23:42.763Z,97069.57
2023-03-16T04:26:11.378Z,97072.48
2023-03-16T04:28:39.917Z,97081.45
2023-03-16T04:31:10.981Z,97085.24
2023-03-16T04:33:43.674Z,97088.69
2023-03-16T04:36:12.204Z,97094.85
2023-03-16T04:38:42.312Z,97098.64
2023-03-16T04:41:11.923Z,97100.52
2023-03-16T04:43:46.455Z,97104.48
2023-03-16T04:46:20.025Z,97108.29
2023-03-16T04:48:48.254Z,97111.02
2023-03-16T04:51:16.713Z,97111.88
2023-03-16T04:54:00.410Z,97113.63
2023-03-16T04:56:35.654Z,97114.52
2023-03-16T04:59:07.253Z,97115.70
2023-03-16T05:01:44.367Z,97118.11
2023-03-16T05:04:18.955Z,97123.61
2023-03-16T05:06:49.106Z,97125.37
2023-03-16T05:09:18.157Z,97129.86
2023-03-16T05:11:46.743Z,97136.59
2023-03-16T05:14:15.995Z,97140.93
2023-03-16T05:16:55.170Z,97146.09
2023-03-16T05:19:24.177Z,97152.45
2023-03-16T05:21:52.485Z,97153.30
2023-03-16T05:24:21.068Z,97158.27
2023-03-16T05:26:49.835Z,97156.70
2023-03-16T05:29:21.525Z,97163.92
2023-03-16T05:31:51.460Z,97166.14
2023-03-16T05:34:22.285Z,97165.64
2023-03-16T05:36:51.839Z,97163.27
2023-03-16T05:39:22.403Z,97163.28
2023-03-16T05:41:51.599Z,97163.63
2023-03-16T05:44:19.583Z,97163.31
2023-03-16T05:47:07.599Z,97162.48
2023-03-16T05:49:38.869Z,97171.46
2023-03-16T05:52:10.799Z,97177.32
2023-03-16T05:54:39.345Z,97181.13
2023-03-16T05:57:10.692Z,97184.73
2023-03-16T05:59:39.808Z,97185.41
2023-03-16T06:02:11.631Z,97191.96
2023-03-16T06:04:40.194Z,97193.34
2023-03-16T06:07:09.145Z,97200.04
2023-03-16T06:09:38.030Z,97205.90
2023-03-16T06:12:11.386Z,97208.98
2023-03-16T06:14:42.743Z,97212.63
2023-03-16T06:17:11.315Z,97217.11
2023-03-16T06:19:41.102Z,97215.77
2023-03-16T06:22:09.502Z,97222.17
2023-03-16T06:24:38.059Z,97229.78
2023-03-16T06:27:06.591Z,97235.66
2023-03-16T06:29:43.397Z,97235.17
2023-03-16T06:32:12.245Z,97239.16
2023-03-16T06:34:41.929Z,97243.15
2023-03-16T06:37:11.328Z,97241.79
2023-03-16T06:39:40.468Z,97247.20
2023-03-16T06:42:08.724Z,97254.05
2023-03-16T06:44:37.710Z,97261.82
2023-03-16T06:47:10.941Z,97265.09
2023-03-16T06:49:40.033Z,97273.17
2023-03-16T06:52:15.323Z,97279.15
2023-03-16T06:54:43.853Z,97282.79
2023-03-16T06:57:13.120Z,97284.77
2023-03-16T06:59:42.658Z,97285.46
2023-03-16T07:02:15.784Z,97287.77
2023-03-16T07:05:03.216Z,97294.50
2023-03-16T07:07:34.542Z,97294.16
2023-03-16T07:10:05.624Z,97297.85
2023-03-16T07:12:37.093Z,97298.88
2023-03-16T07:15:11.356Z,97304.23
2023-03-16T07:17:41.425Z,97305.44
2023-03-16T07:20:13.494Z,97309.41
2023-03-16T07:22:44.552Z,97313.02
2023-03-16T07:25:18.551Z,97314.59
2023-03-16T07:27:52.446Z,97316.99
2023-03-16T07:30:28.354Z,97323.70
2023-03-16T07:33:00.472Z,97323.39
2023-03-16T07:35:30.708Z,97323.93
2023-03-16T07:38:02.899Z,97323.45
2023-03-16T07:40:34.858Z,97330.71
2023-03-16T07:43:09.933Z,97331.30
2023-03-16T07:45:52.099Z,97336.15
2023-03-16T07:48:27.533Z,97339.28
2023-03-16T07:51:02.336Z,97345.17
2023-03-16T07:53:33.422Z,97349.84
2023-03-16T07:56:24.972Z,97352.59
2023-03-16T07:58:55.715Z,97356.54
2023-03-16T08:01:24.903Z,97355.85
2023-03-16T08:03:54.199Z,97358.43
2023-03-16T08:06:26.120Z,97362.38
2023-03-16T08:08:59.825Z,97364.29
2023-03-16T08:11:35.791Z,97361.38
2023-03-16T08:14:06.111Z,97369.84
2023-03-16T08:16:59.430Z,97372.60
2023-03-16T08:19:29.956Z,97372.30
2023-03-16T08:22:02.232Z,97375.54
2023-03-16T08:24:39.517Z,97375.76
2023-03-16T08:27:10.160Z,97379.73
2023-03-16T08:29:41.245Z,97380.45
2023-03-16T08:32:14.799Z,97383.06
2023-03-16T08:34:47.596Z,97384.30
2023-03-16T08:37:17.140Z,97385.36
2023-03-16T08:39:47.749Z,97390.95
2023-03-16T08:42:20.034Z,97394.02
2023-03-16T08:44:55.353Z,97391.98
2023-03-16T08:47:26.027Z,97398.61
2023-03-16T08:49:59.071Z,97401.95
2023-03-16T08:52:31.995Z,97407.89
2023-03-16T08:55:03.709Z,97410.56
2023-03-16T08:57:34.381Z,97413.70
2023-03-16T09:00:12.918Z,97416.99
2023-03-16T09:02:43.047Z,97412.51
2023-03-16T09:05:39.382Z,97415.30
2023-03-16T09:08:34.214Z,97421.46
2023-03-16T09:11:29.216Z,97423.48
2023-03-16T09:14:28.549Z,97424.11
2023-03-16T09:17:18.128Z,97425.36
2023-03-16T09:20:30.129Z,97434.58
2023-03-16T09:23:33.795Z,97441.20
2023-03-16T09:26:25.327Z,97440.58
2023-03-16T09:29:29.128Z,97446.94
2023-03-16T09:32:08.065Z,97450.93
2023-03-16T09:34:59.361Z,97455.18
2023-03-16T09:37:45.450Z,97459.63
2023-03-16T09:40:31.699Z,97471.98
2023-03-16T09:43:30.608Z,97478.42
2023-03-16T09:46:45.220Z,97480.88
2023-03-16T09:49:30.833Z,97484.10
2023-03-16T09:52:46.844Z,97487.02
2023-03-16T09:55:43.691Z,97494.91
2023-03-16T09:58:32.549Z,97496.13
2023-03-16T10:05:28.871Z,97495.23
2023-03-16T10:08:37.706Z,97499.59
2023-03-16T10:11:43.151Z,97501.79
2023-03-16T10:15:00.790Z,97507.11
2023-03-16T10:18:25.841Z,97511.39
2023-03-16T10:21:04.490Z,97514.86
2023-03-16T10:23:48.801Z,97519.77
2023-03-16T10:26:47.086Z,97519.34
2023-03-16T10:29:51.272Z,97521.71
2023-03-16T10:32:50.128Z,97522.98
2023-03-16T10:35:53.471Z,97527.02
2023-03-16T10:38:49.358Z,97527.45
2023-03-16T10:41:56.033Z,97524.34
2023-03-16T10:44:32.611Z,97529.41
2023-03-16T10:47:06.538Z,97529.09
2023-03-16T10:49:49.473Z,97528.21
2023-03-16T10:52:25.781Z,97531.38
2023-03-16T10:55:08.051Z,97530.05
2023-03-16T10:57:42.660Z,97532.48
2023-03-16T11:00:21.195Z,97534.99
2023-03-16T11:02:56.195Z,97538.91
2023-03-16T11:05:38.471Z,97539.26
2023-03-16T11:08:23.713Z,97539.11
2023-03-16T11:11:04.680Z,97544.79
2023-03-16T11:13:38.801Z,97550.19
2023-03-16T11:16:29.644Z,97546.08
2023-03-16T11:19:22.878Z,97550.80
2023-03-16T11:22:01.555Z,97546.16
2023-03-16T11:24:44.458Z,97547.05
2023-03-16T11:27:24.334Z,97550.27
2023-03-16T11:30:06.592Z,97553.98
2023-03-16T11:32:48.362Z,97555.69
2023-03-16T11:35:22.740Z,97553.84
2023-03-16T11:38:11.748Z,97551.71
2023-03-16T11:41:02.043Z,97556.85
2023-03-16T11:43:38.488Z,97557.93
2023-03-16T11:46:18.407Z,97558.03
2023-03-16T11:49:01.363Z,97554.55
2023-03-16T11:51:53.857Z,97552.36
2023-03-16T11:54:49.178Z,97552.41
2023-03-16T11:57:44.248Z,97559.74
2023-03-16T12:00:34.268Z,97560.09
2023-03-16T12:03:26.559Z,97570.27
2023-03-16T12:05:59.868Z,97572.11
2023-03-16T12:09:07.065Z,97575.11
2023-03-16T12:11:48.745Z,97579.58
2023-03-16T12:14:28.798Z,97579.61
2023-03-16T12:17:15.991Z,97576.84
2023-03-16T12:19:52.293Z,97581.63
2023-03-16T12:22:30.701Z,97583.58
2023-03-16T12:25:04.396Z,97586.38
2023-03-16T12:27:39.024Z,97587.80
2023-03-16T12:30:13.189Z,97587.29
2023-03-16T12:33:02.538Z,97586.79
2023-03-16T12:36:12.707Z,97588.83
2023-03-16T12:39:05.563Z,97591.27
2023-03-16T12:41:50.038Z,97589.33
2023-03-16T12:44:28.429Z,97588.45
2023-03-16T12:47:15.879Z,97592.10
2023-03-16T12:49:48.401Z,97594.03
2023-03-16T12:52:18.431Z,97598.33
2023-03-16T12:54:55.652Z,97599.72
2023-03-16T12:57:27.309Z,97602.98
2023-03-16T13:00:00.943Z,97605.75
2023-03-16T13:02:37.847Z,97608.83
2023-03-16T13:05:28.955Z,97607.08
2023-03-16T13:08:14.837Z,97614.03
2023-03-16T13:11:14.507Z,97618.54
2023-03-16T13:14:13.572Z,97621.86
2023-03-16T13:16:44.210Z,97620.90
2023-03-16T13:19:32.788Z,97626.06
2023-03-16T13:22:24.392Z,97626.73
2023-03-16T13:25:13.000Z,97626.21
2023-03-16T13:27:47.818Z,97634.02
2023-03-16T13:30:20.651Z,97631.64
2023-03-16T13:33:00.684Z,97636.56
2023-03-16T13:35:32.711Z,97636.98
2023-03-16T13:38:14.369Z,97640.67
2023-03-16T13:40:50.084Z,97645.88
2023-03-16T13:43:28.906Z,97644.31
2023-03-16T13:45:59.363Z,97645.91
2023-03-16T13:48:30.099Z,97644.39
2023-03-16T13:50:59.029Z,97648.89
2023-03-16T13:53:31.817Z,97649.52
2023-03-16T13:56:02.901Z,97649.17
2023-03-16T13:58:37.347Z,97649.99
2023-03-16T14:01:20.797Z,97652.92
2023-03-16T14:03:49.578Z,97658.11
2023-03-16T14:06:30.688Z,97660.98
2023-03-16T14:09:06.068Z,97665.23
2023-03-16T14:11:35.066Z,97668.31
2023-03-16T14:14:15.145Z,97669.01
2023-03-16T14:16:44.483Z,97671.86
2023-03-16T14:19:26.107Z,97669.09
2023-03-16T14:21:54.884Z,97677.61
2023-03-16T14:24:39.287Z,97680.53
2023-03-16T14:27:32.993Z,97681.09
2023-03-16T14:30:27.921Z,97685.25
2023-03-16T14:33:06.160Z,97687.27
2023-03-16T14:35:43.945Z,97691.02
2023-03-16T14:38:42.123Z,97698.42
2023-03-16T14:41:19.697Z,97705.52
2023-03-16T14:44:00.267Z,97707.42
2023-03-16T14:46:35.026Z,97711.25
2023-03-16T14:49:09.142Z,97711.95
2023-03-16T14:51:40.791Z,97714.36
2023-03-16T14:54:14.276Z,97712.13
2023-03-16T14:56:47.759Z,97716.48
2023-03-16T14:59:16.543Z,97719.96
2023-03-16T15:01:46.046Z,97721.52
2023-03-16T15:04:19.803Z,97723.75
2023-03-16T15:06:48.629Z,97726.30
2023-03-16T15:09:35.690Z,97723.34
2023-03-16T15:12:05.787Z,97724.68
2023-03-16T15:14:53.632Z,97730.37
2023-03-16T15:17:22.174Z,97734.87
2023-03-16T15:19:50.772Z,97730.23
2023-03-16T15:22:31.928Z,97737.17
2023-03-16T15:25:20.922Z,97739.43
2023-03-16T15:27:51.755Z,97739.96
2023-03-16T15:30:26.767Z,97738.95
2023-03-16T15:32:55.756Z,97738.83
2023-03-16T15:35:24.205Z,97748.14
2023-03-16T15:37:53.740Z,97748.81
2023-03-16T15:40:27.220Z,97752.56
2023-03-16T15:42:55.815Z,97753.40
2023-03-16T15:45:25.666Z,97755.98
2023-03-16T15:47:56.951Z,97756.81
2023-03-16T15:50:27.493Z,97762.17
2023-03-16T15:53:00.444Z,97768.94
2023-03-16T15:55:44.699Z,97770.50
2023-03-16T15:58:24.575Z,97770.34
2023-03-16T16:00:55.711Z,97776.06
2023-03-16T16:03:26.034Z,97779.55
2023-03-16T16:05:55.111Z,97781.83
2023-03-16T16:08:23.808Z,97782.52
2023-03-16T16:10:53.685Z,97785.11
2023-03-16T16:13:42.974Z,97787.34
2023-03-16T16:16:14.461Z,97790.58
2023-03-16T16:18:43.622Z,97796.04
2023-03-16T16:21:23.079Z,97801.04
2023-03-16T16:23:52.956Z,97808.08
2023-03-16T16:26:41.606Z,97807.37
2023-03-16T16:29:22.789Z,97811.66
2023-03-16T16:31:52.210Z,97816.84
2023-03-16T16:34:25.020Z,97823.77
2023-03-16T16:36:55.160Z,97828.79
2023-03-16T16:39:24.309Z,97830.51
2023-03-16T16:41:56.834Z,97832.55
2023-03-16T16:44:33.852Z,97836.16
2023-03-16T16:47:03.772Z,97841.13
2023-03-16T16:49:35.371Z,97847.85
2023-03-16T16:52:03.936Z,97853.34
2023-03-16T16:54:32.496Z,97852.83
2023-03-16T16:57:02.058Z,97853.35
2023-03-16T16:59:37.434Z,97861.84
2023-03-16T17:02:46.445Z,97867.70
2023-03-16T17:05:23.995Z,97865.97
2023-03-16T17:07:53.494Z,97869.09
2023-03-16T17:10:27.928Z,97867.89
2023-03-16T17:12:57.251Z,97876.00
2023-03-16T17:15:28.594Z,97878.25
2023-03-16T17:18:18.102Z,97879.44
2023-03-16T17:20:46.923Z,97883.71
2023-03-16T17:23:25.139Z,97885.05
2023-03-16T17:25:55.529Z,97886.93
2023-03-16T17:28:26.643Z,97885.15
2023-03-16T17:30:55.481Z,97889.66
2023-03-16T17:33:26.325Z,97893.80
2023-03-16T17:35:54.693Z,97893.42
2023-03-16T17:38:25.514Z,97897.94
2023-03-16T17:40:55.301Z,97899.54
2023-03-16T17:43:24.621Z,97905.23
2023-03-16T17:45:53.718Z,97907.64
2023-03-16T17:48:24.630Z,97904.85
2023-03-16T17:50:53.438Z,97906.55
2023-03-16T17:53:22.210Z,97909.61
2023-03-16T17:55:50.603Z,97910.08
2023-03-16T17:58:26.027Z,97913.83
2023-03-16T18:00:54.843Z,97918.17
2023-03-16T18:03:26.925Z,97919.55
2023-03-16T18:05:56.781Z,97918.70
2023-03-16T18:08:27.729Z,97920.45
2023-03-16T18:11:11.621Z,97926.17
2023-03-16T18:13:41.721Z,97926.00
2023-03-16T18:16:18.125Z,97927.39
2023-03-16T18:18:46.864Z,97926.19
2023-03-16T18:21:23.638Z,97928.27
2023-03-16T18:23:52.856Z,97930.34
2023-03-16T18:26:22.026Z,97929.96
2023-03-16T18:28:51.630Z,97933.05
2023-03-16T18:31:23.964Z,97934.81
2023-03-16T18:33:55.413Z,97935.17
2023-03-16T18:36:31.590Z,97937.13
2023-03-16T18:39:05.941Z,97937.67
2023-03-16T18:41:36.358Z,97940.99
2023-03-16T18:44:18.616Z,97944.63
2023-03-16T18:46:49.065Z,97949.12
2023-03-16T18:49:23.219Z,97949.96
2023-03-16T18:51:54.299Z,97952.20
2023-03-16T18:54:26.601Z,97956.84
2023-03-16T18:56:55.421Z,97958.73
2023-03-16T18:59:23.507Z,97960.27
2023-03-16T19:01:52.785Z,97961.97
2023-03-16T19:04:27.836Z,97968.70
2023-03-16T19:06:57.006Z,97967.32
2023-03-16T19:09:28.347Z,97969.05
2023-03-16T19:11:57.147Z,97975.61
2023-03-16T19:14:28.475Z,97978.55
2023-03-16T19:16:57.375Z,97979.08
2023-03-16T19:19:26.160Z,97984.09
2023-03-16T19:22:05.819Z,97983.94
2023-03-16T19:24:42.507Z,97982.73
2023-03-16T19:27:23.020Z,97986.85
2023-03-16T19:29:53.129Z,97991.98
2023-03-16T19:32:22.473Z,97991.27
2023-03-16T19:34:50.883Z,97994.35
2023-03-16T19:37:20.014Z,97992.63
2023-03-16T19:39:48.267Z,97996.45
2023-03-16T19:42:24.431Z,97997.16
2023-03-16T19:44:52.472Z,98002.52
2023-03-16T19:47:38.955Z,98003.42
2023-03-16T19:50:22.716Z,98000.83
2023-03-16T19:52:51.566Z,98007.80
2023-03-16T19:55:23.963Z,98013.15
2023-03-16T19:58:00.728Z,98015.41
2023-03-16T20:00:31.226Z,98012.80
2023-03-16T20:02:59.520Z,98016.41
2023-03-16T20:05:30.773Z,98018.98
2023-03-16T20:07:59.883Z,98023.98
2023-03-16T20:10:30.259Z,98023.07
2023-03-16T20:13:00.775Z,98024.58
2023-03-16T20:15:32.690Z,98025.27
2023-03-16T20:18:01.019Z,98025.65
2023-03-16T20:20:31.113Z,98027.57
2023-03-16T20:22:59.929Z,98032.59
2023-03-16T20:25:33.239Z,98032.95
2023-03-16T20:28:03.910Z,98030.40
2023-03-16T20:30:33.029Z,98031.48
2023-03-16T20:33:01.331Z,98034.08
2023-03-16T20:35:32.621Z,98037.84
2023-03-16T20:38:01.187Z,98038.67
2023-03-16T20:40:29.281Z,98040.89
2023-03-16T20:42:57.421Z,98043.27
2023-03-16T20:45:29.141Z,98050.13
2023-03-16T20:47:57.999Z,98054.56
2023-03-16T20:50:29.458Z,98058.67
2023-03-16T20:52:57.755Z,98062.58
2023-03-16T20:55:29.289Z,98067.39
2023-03-16T20:57:58.689Z,98067.52
2023-03-16T21:00:30.810Z,98069.02
2023-03-16T21:03:01.835Z,98070.37
2023-03-16T21:05:30.280Z,98072.09
2023-03-16T21:07:58.711Z,98073.48
2023-03-16T21:10:28.317Z,98074.72
2023-03-16T21:12:57.923Z,98077.55
2023-03-16T21:15:29.763Z,98078.77
2023-03-16T21:18:01.413Z,98078.80
2023-03-16T21:20:32.423Z,98080.36
2023-03-16T21:23:01.662Z,98082.78
2023-03-16T21:25:39.424Z,98081.87
2023-03-16T21:28:10.567Z,98080.24
2023-03-16T21:30:45.376Z,98081.77
2023-03-16T21:33:28.184Z,98086.21
2023-03-16T21:35:57.972Z,98084.93
2023-03-16T21:38:28.097Z,98087.65
2023-03-16T21:40:56.871Z,98091.02
2023-03-16T21:43:26.136Z,98091.45
2023-03-16T21:45:55.313Z,98094.71
2023-03-16T21:48:30.079Z,98096.25
2023-03-16T21:50:58.368Z,98097.29
2023-03-16T21:53:29.433Z,98100.77
2023-03-16T21:55:58.947Z,98099.92
2023-03-16T21:58:27.507Z,98099.30
2023-03-16T22:00:57.279Z,98097.77
2023-03-16T22:03:29.569Z,98100.20
2023-03-16T22:06:01.708Z,98099.34
2023-03-16T22:08:32.888Z,98101.89
2023-03-16T22:11:02.295Z,98103.23
2023-03-16T22:13:30.701Z,98100.59
2023-03-16T22:15:59.000Z,98104.85
2023-03-16T22:18:37.158Z,98108.58
2023-03-16T22:21:33.880Z,98111.80
2023-03-16T22:24:05.688Z,98112.94
2023-03-16T22:26:34.348Z,98112.17
2023-03-16T22:29:17.547Z,98117.28
2023-03-16T22:31:47.391Z,98122.54
2023-03-16T22:34:36.296Z,98123.67
2023-03-16T22:37:06.843Z,98129.11
2023-03-16T22:39:38.857Z,98131.99
2023-03-16T22:42:19.452Z,98128.89
2023-03-16T22:44:47.899Z,98130.49
2023-03-16T22:47:24.792Z,98132.09
2023-03-16T22:49:53.889Z,98133.35
2023-03-16T22:52:29.113Z,98133.43
2023-03-16T22:54:59.267Z,98139.05
2023-03-16T22:57:28.746Z,98143.05
2023-03-16T22:59:58.002Z,98142.00
2023-03-16T23:02:27.694Z,98142.33
2023-03-16T23:04:56.313Z,98140.05
2023-03-16T23:07:25.561Z,98144.34
2023-03-16T23:09:54.021Z,98150.31
2023-03-16T23:12:23.114Z,98154.73
2023-03-16T23:14:52.102Z,98156.55
2023-03-16T23:17:22.539Z,98157.33
2023-03-16T23:19:51.009Z,98164.32
2023-03-16T23:22:19.247Z,98164.59
2023-03-16T23:24:47.573Z,98168.33
2023-03-16T23:27:24.089Z,98167.73
2023-03-16T23:29:53.534Z,98171.43
2023-03-16T23:32:22.159Z,98169.24
2023-03-16T23:34:50.666Z,98174.30
2023-03-16T23:37:18.985Z,98174.34
2023-03-16T23:39:47.349Z,98180.74
2023-03-16T23:42:15.705Z,98181.77
2023-03-16T23:44:44.325Z,98187.14
2023-03-16T23:47:13.100Z,98191.83
2023-03-16T23:49:42.819Z,98191.36
2023-03-16T23:52:13.554Z,98191.93
2023-03-16T23:54:43.609Z,98194.59
2023-03-16T23:57:12.277Z,98192.23
2023-03-16T23:59:40.508Z,98191.27
